aviador You're here:

KRDG Decoded Metar

READING in PA, USA
Report Time2018-07-22 02:54:00
UTC Time2018-07-22 03:07:54
Flight Rules mvfr MVFR
Wind040° at 10 kt
W.Decomp.*RWY 36: 6.2 kt HW 7.9 kt RCW
RWY 13: 2.1 kt HW 9.8 kt LCW
W.Rank040° ranks 28
Current wind is above 040° avg. (5.3)
Visibility9999 m
Phenomena:Light Rain
Clouds:Overcast 013 Hf
Ceiling1,300 ft
Temp18°C (ISA +4)
Dew Point18°C (100% RH)
AAT17.2°C
QNH1008 hPa
Density Alt1,237 ft
Elevation358 ft
Report Wrong Elevation
Raw Report
KRDG 220254Z 04010KT 10SM -RA OVC013 18/18 A2978 RMK AO2 SLP088
P0000 60011 T01780178 56025=

Extra information for KRDG:More info

Metar Taf Metar & Taf Last 4 Metars F.Rules Stats Wind Profile Meteogram Temp Stats Airport Information Weather charts Add Link Nearby VenuesMetar ALERT Operation Metar Decoded Social comments

AIRNAV info for KRDG